createdAt,value
2022-09-27T00:04:02.761Z,96834.09
2022-09-27T00:09:24.436Z,96823.63
2022-09-27T00:14:46.107Z,96827.91
2022-09-27T00:20:08.659Z,96818.28
2022-09-27T00:25:30.314Z,96811.13
2022-09-27T00:30:53.312Z,96809.59
2022-09-27T00:36:15.499Z,96813.03
2022-09-27T00:41:37.855Z,96804.19
2022-09-27T00:47:13.958Z,96802.28
2022-09-27T00:52:46.018Z,96797.44
2022-09-27T00:58:08.234Z,96785.59
2022-09-27T01:03:44.205Z,96788.34
2022-09-27T01:09:09.209Z,96789.41
2022-09-27T01:14:36.811Z,96792.19
2022-09-27T01:20:31.218Z,96795.91
2022-09-27T01:26:10.948Z,96795.34
2022-09-27T01:31:40.385Z,96800.19
2022-09-27T01:37:22.439Z,96784.47
2022-09-27T01:42:55.482Z,96779.94
2022-09-27T01:48:22.347Z,96786.16
2022-09-27T01:53:47.544Z,96785.31
2022-09-27T01:59:11.684Z,96787.25
2022-09-27T02:04:36.862Z,96793.56
2022-09-27T02:10:12.416Z,96792.88
2022-09-27T02:15:49.758Z,96798.56
2022-09-27T02:21:14.995Z,96807.09
2022-09-27T02:26:42.233Z,96823.63
2022-09-27T02:32:04.023Z,96833.69
2022-09-27T02:37:25.831Z,96821.97
2022-09-27T02:42:48.158Z,96824.19
2022-09-27T02:48:48.102Z,96834.81
2022-09-27T02:54:47.517Z,96835.22
2022-09-27T03:00:14.069Z,96855.63
2022-09-27T03:05:46.349Z,96864.56
2022-09-27T03:11:08.135Z,96864.28
2022-09-27T03:16:29.871Z,96867.69
2022-09-27T03:21:51.706Z,96867.44
2022-09-27T03:27:13.390Z,96883.31
2022-09-27T03:32:35.091Z,96886.69
2022-09-27T03:37:56.773Z,96881.47
2022-09-27T03:43:18.540Z,96889.06
2022-09-27T03:48:41.919Z,96889.22
2022-09-27T03:54:03.840Z,96892.66
2022-09-27T03:59:25.554Z,96884.22
2022-09-27T04:04:47.670Z,96891.56
2022-09-27T04:10:10.283Z,96890.56
2022-09-27T04:15:32.076Z,96890.44
2022-09-27T04:20:53.780Z,96896.09
2022-09-27T04:26:15.512Z,96897.47
2022-09-27T04:31:37.924Z,96905.63
2022-09-27T04:37:00.253Z,96898.19
2022-09-27T04:42:21.984Z,96901.44
2022-09-27T04:47:48.114Z,96909.28
2022-09-27T04:53:14.269Z,96918.94
2022-09-27T04:58:35.974Z,96931.06
2022-09-27T05:03:57.732Z,96935.47
2022-09-27T05:09:20.031Z,96939.16
2022-09-27T05:14:41.907Z,96951.72
2022-09-27T05:20:04.704Z,96963.81
2022-09-27T05:25:26.602Z,96962.16
2022-09-27T05:30:48.383Z,96973.03
2022-09-27T05:36:10.406Z,96978.13
2022-09-27T05:41:32.891Z,96991.66
2022-09-27T05:46:54.730Z,96999.22
2022-09-27T05:52:17.529Z,97008.31
2022-09-27T05:57:40.889Z,97011.50
2022-09-27T06:03:05.511Z,97028.13
2022-09-27T06:08:27.310Z,97034.38
2022-09-27T06:13:49.024Z,97039.72
2022-09-27T06:19:10.791Z,97044.69
2022-09-27T06:24:32.509Z,97051.94
2022-09-27T06:29:54.244Z,97049.50
2022-09-27T06:35:16.112Z,97057.88
2022-09-27T06:40:37.989Z,97059.13
2022-09-27T06:46:05.318Z,97069.19
2022-09-27T06:51:27.139Z,97075.44
2022-09-27T06:56:49.002Z,97085.91
2022-09-27T07:02:10.720Z,97091.25
2022-09-27T07:07:32.506Z,97090.31
2022-09-27T07:12:54.942Z,97097.19
2022-09-27T07:18:16.692Z,97102.31
2022-09-27T07:23:38.454Z,97106.41
2022-09-27T07:29:00.719Z,97105.47
2022-09-27T07:34:22.499Z,97128.00
2022-09-27T07:39:44.698Z,97138.06
2022-09-27T07:45:09.237Z,97141.66
2022-09-27T07:50:31.272Z,97149.63
2022-09-27T07:55:54.166Z,97150.19
2022-09-27T08:01:15.969Z,97147.75
2022-09-27T08:06:37.720Z,97151.25
2022-09-27T08:11:59.428Z,97168.94
2022-09-27T08:17:21.199Z,97183.53
2022-09-27T08:22:43.681Z,97186.59
2022-09-27T08:28:05.494Z,97184.44
2022-09-27T08:33:31.996Z,97194.00
2022-09-27T08:38:57.712Z,97196.88
2022-09-27T08:44:43.744Z,97193.63
2022-09-27T08:50:27.217Z,97207.69
2022-09-27T08:55:55.398Z,97199.94
2022-09-27T09:01:19.059Z,97210.44
2022-09-27T09:06:47.298Z,97209.59
2022-09-27T09:12:54.654Z,97216.25
2022-09-27T09:18:45.194Z,97216.91
2022-09-27T09:24:26.261Z,97210.56
2022-09-27T09:29:50.762Z,97210.69
2022-09-27T09:35:17.733Z,97218.75
2022-09-27T09:40:58.046Z,97215.09
2022-09-27T09:46:40.205Z,97202.22
2022-09-27T09:52:19.207Z,97199.53
2022-09-27T09:57:53.443Z,97198.19
2022-09-27T10:03:15.186Z,97188.44
2022-09-27T10:08:37.173Z,97180.84
2022-09-27T10:13:59.025Z,97169.94
2022-09-27T10:19:31.687Z,97170.22
2022-09-27T10:24:56.795Z,97174.66
2022-09-27T10:30:32.130Z,97175.59
2022-09-27T10:35:53.917Z,97169.41
2022-09-27T10:41:37.547Z,97173.41
2022-09-27T10:47:07.396Z,97166.22
2022-09-27T10:52:29.185Z,97158.34
2022-09-27T10:57:54.182Z,97148.94
2022-09-27T11:03:17.228Z,97149.50
2022-09-27T11:08:38.938Z,97135.84
2022-09-27T11:14:23.881Z,97128.38
2022-09-27T11:19:57.650Z,97127.66
2022-09-27T11:25:46.538Z,97116.88
2022-09-27T11:31:36.020Z,97118.41
2022-09-27T11:37:23.673Z,97118.94
2022-09-27T11:43:11.806Z,97118.56
2022-09-27T11:48:57.726Z,97107.75
2022-09-27T11:54:19.354Z,97111.38
2022-09-27T12:00:02.736Z,97122.09
2022-09-27T12:05:31.957Z,97166.72
2022-09-27T12:11:17.149Z,97166.75
2022-09-27T12:16:41.793Z,97175.88
2022-09-27T12:22:13.016Z,97185.09
2022-09-27T12:27:40.545Z,97187.91
2022-09-27T12:33:13.147Z,97175.53
2022-09-27T12:38:43.967Z,97164.94
2022-09-27T12:44:05.837Z,97162.53
2022-09-27T12:49:48.768Z,97152.56
2022-09-27T12:55:11.023Z,97148.81
2022-09-27T13:00:47.089Z,97136.91
2022-09-27T13:06:31.716Z,97128.59
2022-09-27T13:12:10.271Z,97132.44
2022-09-27T13:17:49.012Z,97130.13
2022-09-27T13:23:19.560Z,97121.09
2022-09-27T13:28:50.061Z,97131.09
2022-09-27T13:34:44.689Z,97134.06
2022-09-27T13:40:15.795Z,97118.31
2022-09-27T13:45:43.824Z,97123.34
2022-09-27T13:51:20.042Z,97121.13
2022-09-27T13:56:46.672Z,97104.78
2022-09-27T14:02:30.212Z,97106.78
2022-09-27T14:07:53.243Z,97115.00
2022-09-27T14:13:20.230Z,97126.59
2022-09-27T14:19:00.550Z,97114.63
2022-09-27T14:24:30.778Z,97121.03
2022-09-27T14:29:56.954Z,97133.84
2022-09-27T14:35:39.893Z,97113.47
2022-09-27T14:41:03.912Z,97114.63
2022-09-27T14:46:27.451Z,97112.78
2022-09-27T14:51:55.052Z,97118.38
2022-09-27T14:57:17.639Z,97113.00
2022-09-27T15:02:41.561Z,97122.47
2022-09-27T15:08:06.320Z,97097.25
2022-09-27T15:13:28.390Z,97105.53
2022-09-27T15:19:00.289Z,97125.84
2022-09-27T15:24:40.028Z,97119.72
2022-09-27T15:30:01.798Z,97133.69
2022-09-27T15:35:26.626Z,97126.78
2022-09-27T15:40:48.541Z,97137.25
2022-09-27T15:46:35.189Z,97125.53
2022-09-27T15:51:59.712Z,97130.94
2022-09-27T15:57:21.473Z,97130.94
2022-09-27T16:02:43.442Z,97137.50
2022-09-27T16:08:05.140Z,97142.25
2022-09-27T16:13:32.451Z,97137.00
2022-09-27T16:18:54.814Z,97148.63
2022-09-27T16:24:17.267Z,97151.94
2022-09-27T16:29:43.516Z,97172.88
2022-09-27T16:35:06.080Z,97152.50
2022-09-27T16:40:28.214Z,97149.56
2022-09-27T16:45:50.189Z,97156.16
2022-09-27T16:51:35.310Z,97152.50
2022-09-27T16:56:58.191Z,97157.94
2022-09-27T17:02:19.993Z,97149.22
2022-09-27T17:07:42.514Z,97172.28
2022-09-27T17:13:04.244Z,97170.13
2022-09-27T17:18:25.971Z,97173.63
2022-09-27T17:23:47.805Z,97176.25
2022-09-27T17:29:12.768Z,97181.59
2022-09-27T17:34:36.129Z,97170.69
2022-09-27T17:39:57.856Z,97163.72
2022-09-27T17:45:19.594Z,97165.63
2022-09-27T17:50:46.064Z,97164.31
2022-09-27T17:56:07.804Z,97173.31
2022-09-27T18:01:29.561Z,97183.19
2022-09-27T18:06:51.260Z,97189.81
2022-09-27T18:12:13.710Z,97207.06
2022-09-27T18:17:37.314Z,97196.91
2022-09-27T18:22:59.014Z,97201.19
2022-09-27T18:28:25.545Z,97206.56
2022-09-27T18:33:48.813Z,97208.53
2022-09-27T18:39:13.181Z,97195.88
2022-09-27T18:44:34.908Z,97199.53
2022-09-27T18:49:57.658Z,97203.44
2022-09-27T18:55:22.133Z,97201.31
2022-09-27T19:00:47.099Z,97222.78
2022-09-27T19:06:17.120Z,97216.44
2022-09-27T19:11:39.248Z,97226.69
2022-09-27T19:17:01.237Z,97229.94
2022-09-27T19:22:23.421Z,97232.88
2022-09-27T19:27:45.158Z,97237.44
2022-09-27T19:33:06.961Z,97239.56
2022-09-27T19:38:32.899Z,97234.00
2022-09-27T19:43:56.013Z,97240.19
2022-09-27T19:49:18.893Z,97235.44
2022-09-27T19:54:40.692Z,97223.34
2022-09-27T20:00:03.760Z,97228.94
2022-09-27T20:05:25.523Z,97224.53
2022-09-27T20:11:05.897Z,97216.09
2022-09-27T20:16:28.490Z,97200.06
2022-09-27T20:21:50.427Z,97191.50
2022-09-27T20:27:12.154Z,97191.59
2022-09-27T20:32:34.945Z,97187.81
2022-09-27T20:37:56.794Z,97186.72
2022-09-27T20:43:18.529Z,97187.31
2022-09-27T20:48:41.027Z,97177.56
2022-09-27T20:54:04.551Z,97171.16
2022-09-27T20:59:26.329Z,97165.34
2022-09-27T21:04:48.012Z,97174.19
2022-09-27T21:10:10.005Z,97177.69
2022-09-27T21:15:31.827Z,97173.53
2022-09-27T21:20:58.391Z,97169.53
2022-09-27T21:26:21.955Z,97160.34
2022-09-27T21:31:43.872Z,97156.16
2022-09-27T21:37:05.648Z,97162.22
2022-09-27T21:42:27.342Z,97154.28
2022-09-27T21:47:49.068Z,97157.72
2022-09-27T21:53:10.833Z,97146.91
2022-09-27T21:58:34.319Z,97139.88
2022-09-27T22:03:57.616Z,97141.19
2022-09-27T22:09:19.392Z,97125.44
2022-09-27T22:14:41.390Z,97118.78
2022-09-27T22:20:03.350Z,97105.47
2022-09-27T22:25:25.286Z,97099.59
2022-09-27T22:30:46.975Z,97095.94
2022-09-27T22:36:08.788Z,97082.66
2022-09-27T22:41:30.627Z,97075.56
2022-09-27T22:46:52.608Z,97056.91
2022-09-27T22:52:14.564Z,97045.19
2022-09-27T22:57:36.314Z,97030.78
2022-09-27T23:02:58.959Z,97018.81
2022-09-27T23:08:21.585Z,97029.75
2022-09-27T23:13:43.917Z,97026.47
2022-09-27T23:19:08.061Z,97005.41
2022-09-27T23:24:29.879Z,96992.78
2022-09-27T23:29:51.577Z,96984.94
2022-09-27T23:35:13.411Z,96973.78
2022-09-27T23:40:36.045Z,96974.09
2022-09-27T23:45:57.875Z,96964.72
2022-09-27T23:51:19.564Z,96954.44
2022-09-27T23:56:41.268Z,96934.25
